Time;durP1;ratioP1;P1;durP2;ratioP2;P2;SDS_P1;SDS_P2;PMS_P1;PMS_P2;Temp;Humidity;BMP_temperature;BMP_pressure;BME280_temperature;BME280_humidity;BME280_pressure;Samples;Min_cycle;Max_cycle;Signal;HPM_P1;HPM_P2
2023/04/22 00:00:17;;;;;;;13.15;10.68;;;10.90;99.90;;;;;;5132416;27;20387;-70
2023/04/22 00:02:43;;;;;;;13.27;11.90;;;10.90;99.90;;;;;;5135290;27;20015;-69
2023/04/22 00:05:12;;;;;;;11.60;10.30;;;10.90;99.90;;;;;;5135187;27;20023;-70
2023/04/22 00:07:41;;;;;;;12.25;10.05;;;10.80;99.90;;;;;;5134576;27;20143;-70
2023/04/22 00:10:09;;;;;;;13.05;11.10;;;10.90;99.90;;;;;;5133226;27;20023;-69
2023/04/22 00:12:34;;;;;;;12.00;10.77;;;11.00;99.90;;;;;;5134201;27;20077;-69
2023/04/22 00:15:01;;;;;;;15.95;11.82;;;11.00;99.90;;;;;;5133625;27;20043;-69
2023/04/22 00:17:27;;;;;;;10.75;9.65;;;11.10;99.90;;;;;;5135421;27;20371;-69
2023/04/22 00:19:53;;;;;;;13.77;10.95;;;11.10;99.90;;;;;;5135195;27;20391;-70
2023/04/22 00:22:19;;;;;;;11.70;10.13;;;11.10;99.90;;;;;;5134123;27;20015;-69
2023/04/22 00:24:44;;;;;;;13.85;11.25;;;11.10;99.90;;;;;;5135167;27;20068;-69
2023/04/22 00:27:10;;;;;;;12.43;9.93;;;11.00;99.90;;;;;;5134307;27;20047;-69
2023/04/22 00:29:36;;;;;;;13.63;10.90;;;11.10;99.90;;;;;;5134935;27;20046;-69
2023/04/22 00:32:02;;;;;;;10.85;9.75;;;11.10;99.90;;;;;;5134980;27;20052;-69
2023/04/22 00:34:27;;;;;;;11.52;10.35;;;11.10;99.90;;;;;;5134474;27;20023;-70
2023/04/22 00:36:54;;;;;;;11.52;10.18;;;11.10;99.90;;;;;;5134712;27;20026;-70
2023/04/22 00:39:20;;;;;;;11.35;10.15;;;11.10;99.90;;;;;;5133397;27;20372;-69
2023/04/22 00:41:46;;;;;;;12.60;10.60;;;11.00;99.90;;;;;;5134712;27;20030;-69
2023/04/22 00:44:11;;;;;;;11.23;9.88;;;11.00;99.90;;;;;;5132302;27;20126;-69
2023/04/22 00:46:38;;;;;;;11.18;10.00;;;10.90;99.90;;;;;;5129238;27;20026;-69
2023/04/22 00:49:04;;;;;;;9.75;8.85;;;10.90;99.90;;;;;;5134191;27;20019;-69
2023/04/22 00:51:31;;;;;;;10.73;8.98;;;10.90;99.90;;;;;;5134536;27;20107;-69
2023/04/22 00:53:56;;;;;;;10.80;9.75;;;11.00;99.90;;;;;;5133313;27;20030;-69
2023/04/22 00:56:25;;;;;;;8.60;7.90;;;11.00;99.90;;;;;;5133878;27;20395;-69
2023/04/22 00:58:53;;;;;;;10.20;8.80;;;10.90;99.90;;;;;;5133145;27;20034;-69
2023/04/22 01:01:19;;;;;;;8.23;7.45;;;10.90;99.90;;;;;;5130353;27;20034;-69
2023/04/22 01:03:47;;;;;;;8.95;7.93;;;10.90;99.90;;;;;;5133719;27;20026;-69
2023/04/22 01:06:12;;;;;;;11.07;9.80;;;10.80;99.90;;;;;;5132757;27;20023;-69
2023/04/22 01:08:39;;;;;;;11.93;10.73;;;10.90;99.90;;;;;;5131712;27;20026;-69
2023/04/22 01:11:05;;;;;;;13.15;11.52;;;10.80;99.90;;;;;;5133474;27;20027;-69
2023/04/22 01:13:31;;;;;;;14.45;10.88;;;10.80;99.90;;;;;;5133675;27;20035;-69
2023/04/22 01:15:59;;;;;;;13.02;11.63;;;10.80;99.90;;;;;;5133421;27;20072;-70
2023/04/22 01:18:25;;;;;;;15.20;12.68;;;10.90;99.90;;;;;;5133882;27;20041;-70
2023/04/22 01:20:51;;;;;;;15.10;12.57;;;10.90;99.90;;;;;;5132950;27;20039;-70
2023/04/22 01:23:21;;;;;;;13.43;12.02;;;10.90;99.90;;;;;;5132667;27;20080;-70
2023/04/22 01:25:48;;;;;;;13.38;11.90;;;10.80;99.90;;;;;;5132800;27;20050;-70
2023/04/22 01:28:15;;;;;;;12.90;11.40;;;10.90;99.90;;;;;;5132786;27;20056;-69
2023/04/22 01:30:42;;;;;;;11.80;10.65;;;10.90;99.90;;;;;;5130555;27;20067;-69
2023/04/22 01:33:11;;;;;;;12.23;10.98;;;10.80;99.90;;;;;;5133607;27;20061;-71
2023/04/22 01:35:37;;;;;;;12.43;11.18;;;10.80;99.90;;;;;;5132568;27;20098;-70
2023/04/22 01:38:08;;;;;;;11.85;10.60;;;10.80;99.90;;;;;;5132982;27;20094;-70
2023/04/22 01:40:34;;;;;;;12.73;11.43;;;10.80;99.90;;;;;;5133444;27;20096;-70
2023/04/22 01:43:01;;;;;;;16.05;13.18;;;10.80;99.90;;;;;;5133255;27;20076;-69
2023/04/22 01:45:27;;;;;;;13.60;12.15;;;10.70;99.90;;;;;;5130377;27;20015;-70
2023/04/22 01:47:54;;;;;;;14.55;12.80;;;10.80;99.90;;;;;;5132567;27;20015;-70
2023/04/22 01:50:20;;;;;;;15.80;13.77;;;10.80;99.90;;;;;;5133711;27;20100;-70
2023/04/22 01:52:47;;;;;;;19.55;14.73;;;10.80;99.90;;;;;;5128727;27;20054;-69
2023/04/22 01:55:13;;;;;;;18.65;15.32;;;10.90;99.90;;;;;;5133382;27;20036;-70
2023/04/22 01:57:39;;;;;;;18.05;15.50;;;10.90;99.90;;;;;;5133164;27;20099;-70
2023/04/22 02:00:07;;;;;;;17.25;15.00;;;10.90;99.90;;;;;;5132917;27;20011;-70
2023/04/22 02:02:33;;;;;;;14.25;12.00;;;10.90;99.90;;;;;;5132363;27;20134;-70
2023/04/22 02:04:59;;;;;;;18.15;13.77;;;10.90;99.90;;;;;;5131749;27;20019;-70
2023/04/22 02:07:25;;;;;;;17.92;14.50;;;10.80;99.90;;;;;;5132461;27;20015;-70
2023/04/22 02:09:51;;;;;;;17.13;15.18;;;10.90;99.90;;;;;;5132610;27;20018;-70
2023/04/22 02:12:17;;;;;;;17.45;14.70;;;10.90;99.90;;;;;;5132427;27;20398;-70
2023/04/22 02:14:43;;;;;;;21.60;15.65;;;10.90;99.90;;;;;;5133125;27;20478;-70
2023/04/22 02:17:09;;;;;;;19.38;14.38;;;10.90;99.90;;;;;;5132682;27;20408;-70
2023/04/22 02:19:35;;;;;;;16.98;14.30;;;10.90;99.90;;;;;;5131956;27;20420;-69
2023/04/22 02:22:01;;;;;;;15.50;13.73;;;11.00;99.90;;;;;;5133292;27;20117;-70
2023/04/22 02:24:27;;;;;;;15.00;13.35;;;11.00;99.90;;;;;;5133096;28;20068;-70
2023/04/22 02:26:52;;;;;;;15.45;13.60;;;11.00;99.90;;;;;;5131157;28;20023;-70
2023/04/22 02:29:18;;;;;;;16.77;13.82;;;11.00;99.90;;;;;;5133290;27;20022;-70
2023/04/22 02:31:44;;;;;;;15.30;13.57;;;11.00;99.90;;;;;;5132474;27;20019;-70
2023/04/22 02:34:10;;;;;;;18.17;15.73;;;11.00;99.90;;;;;;5133056;28;20046;-70
2023/04/22 02:36:35;;;;;;;16.35;14.15;;;11.00;99.90;;;;;;5131969;27;20047;-70
2023/04/22 02:39:05;;;;;;;14.02;12.50;;;10.90;99.90;;;;;;5136832;27;20450;-70
2023/04/22 02:41:31;;;;;;;14.25;12.75;;;10.90;99.90;;;;;;5137253;27;20019;-70
2023/04/22 02:43:56;;;;;;;15.13;13.05;;;11.00;99.90;;;;;;5136919;27;20019;-70
2023/04/22 02:46:22;;;;;;;15.75;13.75;;;10.90;99.90;;;;;;5136803;27;20027;-70
2023/04/22 02:48:48;;;;;;;16.70;14.25;;;10.90;99.90;;;;;;5136640;27;20391;-71
2023/04/22 02:51:14;;;;;;;15.45;13.70;;;10.90;99.90;;;;;;5137074;27;20439;-70
2023/04/22 02:53:40;;;;;;;17.70;14.02;;;10.90;99.90;;;;;;5135989;27;20076;-70
2023/04/22 02:56:07;;;;;;;18.15;15.70;;;10.90;99.90;;;;;;5136638;27;20027;-70
2023/04/22 02:58:33;;;;;;;17.33;14.05;;;10.90;99.90;;;;;;5136813;27;20030;-70
2023/04/22 03:00:58;;;;;;;16.38;14.40;;;10.90;99.90;;;;;;5136609;27;20019;-70
2023/04/22 03:03:24;;;;;;;19.10;15.40;;;10.90;99.90;;;;;;5136532;27;20116;-70
2023/04/22 03:05:50;;;;;;;18.20;15.73;;;10.90;99.90;;;;;;5136544;27;20051;-70
2023/04/22 03:08:16;;;;;;;18.25;16.13;;;11.00;99.90;;;;;;5136060;27;20011;-70
2023/04/22 03:10:41;;;;;;;16.73;14.40;;;11.00;99.90;;;;;;5136086;27;20111;-70
2023/04/22 03:13:07;;;;;;;15.93;13.70;;;11.00;99.90;;;;;;5136174;27;20387;-70
2023/04/22 03:15:33;;;;;;;15.13;13.35;;;10.90;99.90;;;;;;5136002;27;20034;-70
2023/04/22 03:17:58;;;;;;;17.33;14.35;;;10.90;99.90;;;;;;5136112;27;20515;-70
2023/04/22 03:20:24;;;;;;;18.77;15.52;;;10.90;99.90;;;;;;5136232;27;20391;-70
2023/04/22 03:22:50;;;;;;;20.75;16.55;;;10.90;99.90;;;;;;5136126;27;20011;-70
2023/04/22 03:25:15;;;;;;;15.82;14.02;;;10.80;99.90;;;;;;5135007;27;20088;-70
2023/04/22 03:27:41;;;;;;;16.10;14.40;;;10.80;99.90;;;;;;5135080;27;20055;-70
2023/04/22 03:30:07;;;;;;;17.33;15.45;;;10.80;99.90;;;;;;5136063;27;20031;-70
2023/04/22 03:32:33;;;;;;;17.85;15.65;;;10.90;99.90;;;;;;5136052;27;20364;-70
2023/04/22 03:34:59;;;;;;;20.65;17.38;;;10.90;99.90;;;;;;5136014;27;20062;-71
2023/04/22 03:37:25;;;;;;;20.05;17.85;;;10.80;99.90;;;;;;5135963;27;20041;-70
2023/04/22 03:39:50;;;;;;;19.52;17.02;;;10.90;99.90;;;;;;5135999;27;20025;-71
2023/04/22 03:42:16;;;;;;;23.20;17.95;;;10.90;99.90;;;;;;5135390;27;20027;-70
2023/04/22 03:44:42;;;;;;;18.52;14.27;;;10.80;99.90;;;;;;5134866;27;20478;-70
2023/04/22 03:47:07;;;;;;;16.63;14.70;;;10.80;99.90;;;;;;5136142;27;20016;-71
2023/04/22 03:49:33;;;;;;;17.15;15.35;;;10.80;99.90;;;;;;5133715;27;20023;-70
2023/04/22 03:51:59;;;;;;;17.33;15.50;;;10.80;99.90;;;;;;5135718;27;20479;-71
2023/04/22 03:54:25;;;;;;;18.88;14.85;;;10.80;99.90;;;;;;5134956;27;20535;-70
2023/04/22 03:56:51;;;;;;;20.15;17.70;;;10.70;99.90;;;;;;5135093;27;20016;-70
2023/04/22 03:59:17;;;;;;;20.77;16.95;;;10.70;99.90;;;;;;5135407;27;20031;-70
2023/04/22 04:01:46;;;;;;;19.23;16.00;;;10.80;99.90;;;;;;5135320;27;20072;-71
2023/04/22 04:04:11;;;;;;;21.63;18.45;;;10.80;99.90;;;;;;5135015;27;20023;-70
2023/04/22 04:06:37;;;;;;;18.88;16.58;;;10.70;99.90;;;;;;5135236;27;20030;-70
2023/04/22 04:09:04;;;;;;;22.02;16.77;;;10.70;99.90;;;;;;5135280;27;20019;-70
2023/04/22 04:11:30;;;;;;;20.77;16.52;;;10.70;99.90;;;;;;5134456;27;20023;-70
2023/04/22 04:13:55;;;;;;;21.45;17.08;;;10.70;99.90;;;;;;5134506;27;20039;-70
2023/04/22 04:16:21;;;;;;;26.13;19.20;;;10.60;99.90;;;;;;5134753;27;20080;-70
2023/04/22 04:18:50;;;;;;;26.17;19.92;;;10.70;99.90;;;;;;5132115;27;20425;-70
2023/04/22 04:21:16;;;;;;;21.98;17.60;;;10.70;99.90;;;;;;5135280;27;20039;-70
2023/04/22 04:23:42;;;;;;;23.05;18.27;;;10.70;99.90;;;;;;5134848;27;20050;-70
2023/04/22 04:26:07;;;;;;;20.58;17.58;;;10.70;99.90;;;;;;5134603;27;20058;-70
2023/04/22 04:28:34;;;;;;;21.90;17.63;;;10.70;99.90;;;;;;5132757;27;20372;-70
2023/04/22 04:31:04;;;;;;;21.88;17.90;;;10.80;99.90;;;;;;5135345;27;20008;-70
2023/04/22 04:33:31;;;;;;;23.95;17.67;;;10.80;99.90;;;;;;5135049;27;20375;-71
2023/04/22 04:35:58;;;;;;;22.23;18.55;;;10.80;99.90;;;;;;5131984;27;20103;-70
2023/04/22 04:38:24;;;;;;;22.63;17.35;;;10.80;99.90;;;;;;5134943;27;20475;-71
2023/04/22 04:40:51;;;;;;;19.15;16.38;;;10.80;99.90;;;;;;5134783;27;20463;-70
2023/04/22 04:43:17;;;;;;;19.10;15.90;;;10.70;99.90;;;;;;5131743;27;20023;-70
2023/04/22 04:45:45;;;;;;;24.77;18.83;;;10.70;99.90;;;;;;5126011;27;20391;-70
2023/04/22 04:48:13;;;;;;;20.30;17.15;;;10.70;99.90;;;;;;5124160;27;20016;-70
2023/04/22 04:50:42;;;;;;;20.15;16.48;;;10.70;99.90;;;;;;5125635;27;20026;-70
2023/04/22 04:53:09;;;;;;;22.65;17.50;;;10.70;99.90;;;;;;5131522;27;20394;-70
2023/04/22 04:55:35;;;;;;;19.92;17.25;;;10.70;99.90;;;;;;5134022;27;20027;-70
2023/04/22 04:58:00;;;;;;;22.40;17.30;;;10.70;99.90;;;;;;5134247;27;20023;-70
2023/04/22 05:00:26;;;;;;;20.60;16.88;;;10.70;99.90;;;;;;5134144;27;20102;-70
2023/04/22 05:02:52;;;;;;;19.48;16.52;;;10.60;99.90;;;;;;5133791;27;20063;-70
2023/04/22 05:05:17;;;;;;;20.98;16.58;;;10.60;99.90;;;;;;5134096;27;20042;-70
2023/04/22 05:07:43;;;;;;;20.83;17.42;;;10.50;99.90;;;;;;5134159;27;20479;-71
2023/04/22 05:10:10;;;;;;;19.02;16.90;;;10.60;99.90;;;;;;5133667;27;20099;-70
2023/04/22 05:12:35;;;;;;;19.17;16.95;;;10.50;99.90;;;;;;5133891;27;20379;-70
2023/04/22 05:15:01;;;;;;;18.50;16.40;;;10.60;99.90;;;;;;5133747;27;20023;-70
2023/04/22 05:17:27;;;;;;;20.50;17.77;;;10.60;99.90;;;;;;5133707;27;20019;-70
2023/04/22 05:19:53;;;;;;;20.23;16.90;;;10.60;99.90;;;;;;5133948;27;20463;-70
2023/04/22 05:22:19;;;;;;;19.17;17.15;;;10.60;99.90;;;;;;5134508;27;20468;-70
2023/04/22 05:24:44;;;;;;;18.92;16.15;;;10.60;99.90;;;;;;5132619;27;20483;-70
2023/04/22 05:27:10;;;;;;;27.55;20.75;;;10.70;99.90;;;;;;5133860;27;20034;-70
2023/04/22 05:29:36;;;;;;;21.73;17.98;;;10.70;99.90;;;;;;5134262;27;20463;-70
2023/04/22 05:32:02;;;;;;;20.80;17.88;;;10.60;99.90;;;;;;5134353;27;20030;-70
2023/04/22 05:34:28;;;;;;;26.10;19.98;;;10.70;99.90;;;;;;5133097;27;20031;-71
2023/04/22 05:36:54;;;;;;;20.95;18.27;;;10.70;99.90;;;;;;5133388;27;20081;-70
2023/04/22 05:39:19;;;;;;;20.58;17.73;;;10.80;99.90;;;;;;5133962;27;20433;-70
2023/04/22 05:41:45;;;;;;;21.05;18.77;;;10.80;99.90;;;;;;5133160;27;20023;-70
2023/04/22 05:44:11;;;;;;;21.48;18.65;;;10.80;99.90;;;;;;5134139;27;20479;-71
2023/04/22 05:46:37;;;;;;;21.10;18.75;;;10.80;99.90;;;;;;5133896;27;20031;-70
2023/04/22 05:49:02;;;;;;;24.75;20.23;;;10.80;99.90;;;;;;5134101;27;20080;-70
2023/04/22 05:51:28;;;;;;;21.95;18.05;;;10.80;99.90;;;;;;5133963;27;20433;-75
2023/04/22 05:53:54;;;;;;;20.65;16.70;;;10.70;99.90;;;;;;5133647;27;20038;-70
2023/04/22 05:56:20;;;;;;;24.38;19.35;;;10.90;99.90;;;;;;5133677;27;20072;-70
2023/04/22 05:58:46;;;;;;;20.70;17.08;;;10.90;99.90;;;;;;5133955;27;20019;-71
2023/04/22 06:01:12;;;;;;;23.42;18.48;;;11.00;99.90;;;;;;5133820;27;20023;-70
2023/04/22 06:03:38;;;;;;;24.05;20.13;;;11.10;99.90;;;;;;5133860;27;20058;-70
2023/04/22 06:06:05;;;;;;;28.02;20.92;;;11.10;99.90;;;;;;5133329;27;20061;-70
2023/04/22 06:08:31;;;;;;;29.05;21.70;;;11.20;99.90;;;;;;5132939;27;20502;-71
2023/04/22 06:10:56;;;;;;;25.40;21.27;;;11.20;99.90;;;;;;5131021;27;20471;-70
2023/04/22 06:13:22;;;;;;;26.60;21.98;;;11.30;99.90;;;;;;5132151;27;20071;-71
2023/04/22 06:15:48;;;;;;;24.75;20.80;;;11.30;99.90;;;;;;5133578;27;20034;-70
2023/04/22 06:18:13;;;;;;;24.08;20.23;;;11.40;99.90;;;;;;5132956;27;20444;-70
2023/04/22 06:20:39;;;;;;;24.25;19.85;;;11.50;99.90;;;;;;5131413;27;20038;-70
2023/04/22 06:23:05;;;;;;;31.88;23.90;;;11.60;99.90;;;;;;5133124;27;20411;-71
2023/04/22 06:25:31;;;;;;;32.50;25.35;;;11.60;99.90;;;;;;5133590;28;20046;-71
2023/04/22 06:28:00;;;;;;;37.25;26.95;;;11.70;99.90;;;;;;5132479;27;20064;-70
2023/04/22 06:30:26;;;;;;;32.40;25.77;;;11.70;99.90;;;;;;5133264;28;20027;-70
2023/04/22 06:32:53;;;;;;;39.10;29.42;;;11.70;99.90;;;;;;5133042;28;20144;-70
2023/04/22 06:35:20;;;;;;;42.80;30.45;;;11.70;99.90;;;;;;5133302;27;20316;-70
2023/04/22 06:37:47;;;;;;;35.95;26.60;;;11.70;99.90;;;;;;5131720;27;20401;-70
2023/04/22 06:40:13;;;;;;;36.50;26.42;;;11.80;99.90;;;;;;5133013;27;20035;-71
2023/04/22 06:42:40;;;;;;;41.70;28.20;;;11.80;99.90;;;;;;5129857;27;20153;-69
2023/04/22 06:45:08;;;;;;;39.75;29.88;;;11.80;99.90;;;;;;5132739;27;20034;-68
2023/04/22 06:47:34;;;;;;;45.90;32.22;;;11.90;99.90;;;;;;5132233;27;20034;-68
2023/04/22 06:50:01;;;;;;;36.55;25.75;;;12.00;99.90;;;;;;5132807;27;20029;-69
2023/04/22 06:52:26;;;;;;;35.53;28.02;;;12.00;99.90;;;;;;5129157;28;20021;-69
2023/04/22 06:54:52;;;;;;;42.13;29.65;;;12.10;99.90;;;;;;5132824;28;20031;-69
2023/04/22 06:57:18;;;;;;;35.25;26.63;;;12.20;99.90;;;;;;5130273;28;20043;-68
2023/04/22 06:59:44;;;;;;;35.63;24.23;;;12.30;99.90;;;;;;5133037;27;20051;-69
2023/04/22 07:02:09;;;;;;;33.25;25.52;;;12.40;99.90;;;;;;5132890;27;20026;-69
2023/04/22 07:04:35;;;;;;;29.83;22.00;;;12.50;99.90;;;;;;5132440;28;20076;-69
2023/04/22 07:07:01;;;;;;;31.58;22.05;;;12.60;99.90;;;;;;5132219;28;20023;-69
2023/04/22 07:09:27;;;;;;;27.40;19.85;;;12.60;99.90;;;;;;5130709;27;20503;-69
2023/04/22 07:11:53;;;;;;;27.70;20.92;;;12.70;99.90;;;;;;5130444;27;20031;-69
2023/04/22 07:14:19;;;;;;;32.90;21.65;;;12.80;99.90;;;;;;5132008;28;20039;-69
2023/04/22 07:16:45;;;;;;;29.30;22.20;;;13.00;99.90;;;;;;5132545;27;20027;-69
2023/04/22 07:19:11;;;;;;;28.80;22.33;;;13.00;99.90;;;;;;5131845;27;20030;-69
2023/04/22 07:21:37;;;;;;;27.75;18.77;;;13.10;99.90;;;;;;5132296;27;20048;-69
2023/04/22 07:24:03;;;;;;;24.73;18.25;;;13.20;99.90;;;;;;5132591;27;20031;-69
2023/04/22 07:26:30;;;;;;;29.23;19.15;;;13.30;99.90;;;;;;5135576;27;20086;-69
2023/04/22 07:28:56;;;;;;;25.33;18.52;;;13.50;99.90;;;;;;5135869;27;20026;-69
2023/04/22 07:31:22;;;;;;;23.42;17.92;;;13.60;99.90;;;;;;5136237;27;20132;-69
2023/04/22 07:33:48;;;;;;;23.60;16.70;;;13.60;99.90;;;;;;5136060;27;20110;-70
2023/04/22 07:36:14;;;;;;;19.75;15.32;;;13.50;99.90;;;;;;5135700;27;20034;-69
2023/04/22 07:38:40;;;;;;;21.88;16.65;;;13.70;99.90;;;;;;5136198;27;20015;-69
2023/04/22 07:41:05;;;;;;;27.88;16.10;;;14.00;99.90;;;;;;5133521;27;20420;-70
2023/04/22 07:43:31;;;;;;;21.75;18.17;;;14.20;99.90;;;;;;5137575;27;20084;-70
2023/04/22 07:45:57;;;;;;;19.02;15.18;;;14.30;99.90;;;;;;5135754;27;20022;-70
2023/04/22 07:48:23;;;;;;;19.77;15.55;;;14.20;99.90;;;;;;5136112;27;20035;-70
2023/04/22 07:50:48;;;;;;;19.98;14.32;;;14.20;99.90;;;;;;5135970;27;20076;-70
2023/04/22 07:53:16;;;;;;;18.40;14.73;;;14.20;99.90;;;;;;5134076;27;20019;-71
2023/04/22 07:55:41;;;;;;;16.35;13.23;;;14.20;99.90;;;;;;5136225;27;20062;-70
2023/04/22 07:58:07;;;;;;;18.08;14.35;;;14.30;99.90;;;;;;5136035;27;20051;-70
2023/04/22 08:00:34;;;;;;;18.40;13.80;;;14.40;99.90;;;;;;5137439;27;20043;-70
2023/04/22 08:03:00;;;;;;;16.40;12.30;;;14.50;99.90;;;;;;5156572;27;20371;-71
2023/04/22 08:05:26;;;;;;;16.98;13.38;;;14.50;99.90;;;;;;5143233;27;20023;-71
2023/04/22 08:07:51;;;;;;;14.82;12.85;;;14.60;99.90;;;;;;5135838;27;20548;-71
2023/04/22 08:10:17;;;;;;;17.95;12.55;;;14.70;99.90;;;;;;5135675;27;20066;-71
2023/04/22 08:12:43;;;;;;;15.52;13.90;;;14.80;99.90;;;;;;5135552;27;20031;-72
2023/04/22 08:15:09;;;;;;;18.48;13.70;;;15.10;99.90;;;;;;5135491;27;20030;-72
2023/04/22 08:17:34;;;;;;;16.23;12.02;;;15.20;99.90;;;;;;5135504;27;20062;-70
2023/04/22 08:20:00;;;;;;;14.43;12.35;;;15.40;99.90;;;;;;5134924;27;20023;-70
2023/04/22 08:22:26;;;;;;;15.05;11.90;;;15.50;99.90;;;;;;5135747;27;20023;-71
2023/04/22 08:24:52;;;;;;;14.23;11.48;;;15.60;99.90;;;;;;5132147;27;20020;-70
2023/04/22 08:27:19;;;;;;;12.60;10.40;;;15.70;99.90;;;;;;5132463;27;20035;-72
2023/04/22 08:29:45;;;;;;;13.10;11.32;;;15.80;99.90;;;;;;5134892;27;20025;-72
2023/04/22 08:32:11;;;;;;;14.07;11.45;;;15.80;99.90;;;;;;5131609;27;20023;-72
2023/04/22 08:34:37;;;;;;;13.65;11.13;;;15.90;99.90;;;;;;5133937;27;20031;-72
2023/04/22 08:37:03;;;;;;;12.18;10.23;;;16.20;99.90;;;;;;5133927;27;20025;-72
2023/04/22 08:39:28;;;;;;;10.45;8.88;;;16.30;99.90;;;;;;5132088;27;20026;-72
2023/04/22 08:41:55;;;;;;;11.60;9.32;;;16.40;99.90;;;;;;5129887;27;20030;-72
2023/04/22 08:44:21;;;;;;;10.80;9.65;;;16.40;99.90;;;;;;5133481;27;20528;-72
2023/04/22 08:46:48;;;;;;;11.18;9.40;;;16.60;99.90;;;;;;5130293;27;20375;-73
2023/04/22 08:49:17;;;;;;;12.70;8.85;;;16.60;99.90;;;;;;5133860;27;20031;-73
2023/04/22 08:51:44;;;;;;;12.43;8.52;;;16.80;99.90;;;;;;5134671;27;20023;-73
2023/04/22 08:54:12;;;;;;;9.55;7.97;;;17.00;99.90;;;;;;5131913;27;20057;-73
2023/04/22 08:56:42;;;;;;;12.30;8.15;;;17.10;99.90;;;;;;5134661;27;20387;-73
2023/04/22 08:59:10;;;;;;;9.60;8.55;;;17.20;99.90;;;;;;5134601;27;20072;-73
2023/04/22 09:01:38;;;;;;;8.00;7.20;;;17.20;99.90;;;;;;5133941;27;20019;-73
2023/04/22 09:04:05;;;;;;;9.32;8.20;;;17.40;99.90;;;;;;5090843;27;20395;-73
2023/04/22 09:06:31;;;;;;;8.45;7.55;;;17.40;99.90;;;;;;5115325;27;20023;-73
2023/04/22 09:08:59;;;;;;;9.27;7.75;;;17.50;99.90;;;;;;5115556;27;20046;-72
2023/04/22 09:11:30;;;;;;;10.98;8.70;;;17.50;99.90;;;;;;5112433;27;20353;-73
2023/04/22 09:13:56;;;;;;;8.20;7.40;;;17.50;99.90;;;;;;5112861;27;20027;-73
2023/04/22 09:16:22;;;;;;;8.75;7.10;;;17.50;99.90;;;;;;5117011;27;20039;-73
2023/04/22 09:18:49;;;;;;;9.25;7.10;;;17.60;99.90;;;;;;5111018;27;20024;-73
2023/04/22 09:21:15;;;;;;;7.20;6.50;;;17.80;99.90;;;;;;5114843;27;20475;-73
2023/04/22 09:23:52;;;;;;;10.35;6.97;;;17.90;99.90;;;;;;5109643;27;20034;-73
2023/04/22 09:26:22;;;;;;;9.38;6.53;;;18.10;99.90;;;;;;5114939;27;20020;-73
2023/04/22 09:28:49;;;;;;;9.48;5.95;;;18.40;99.90;;;;;;5113311;27;20020;-73
2023/04/22 09:31:15;;;;;;;6.80;6.00;;;18.60;99.90;;;;;;5108541;27;20429;-73
2023/04/22 09:33:45;;;;;;;7.20;5.88;;;18.80;99.90;;;;;;5113328;27;20096;-73
2023/04/22 09:36:11;;;;;;;7.03;5.57;;;19.00;99.90;;;;;;5111750;27;20088;-73
2023/04/22 09:38:36;;;;;;;10.38;6.55;;;19.20;99.90;;;;;;5115748;27;20433;-73
2023/04/22 09:41:09;;;;;;;10.13;6.43;;;19.20;99.90;;;;;;5120810;27;20435;-74
2023/04/22 09:43:36;;;;;;;;;;;19.20;99.90;;;;;;5118362;27;20499;-73
2023/04/22 09:46:02;;;;;;;7.55;6.07;;;19.10;99.90;;;;;;5113214;27;19907;-73
2023/04/22 09:48:28;;;;;;;6.05;5.55;;;19.20;99.90;;;;;;5114499;27;20380;-73
2023/04/22 09:50:53;;;;;;;9.00;6.03;;;19.40;99.90;;;;;;5112780;27;20375;-73
2023/04/22 09:53:21;;;;;;;9.30;7.43;;;19.60;99.90;;;;;;5110587;27;20035;-73
2023/04/22 09:55:49;;;;;;;9.75;6.63;;;19.70;99.90;;;;;;5111543;27;20084;-72
2023/04/22 09:58:17;;;;;;;9.63;6.97;;;19.70;99.90;;;;;;5112392;27;20107;-73
2023/04/22 10:00:55;;;;;;;6.07;5.18;;;19.80;99.90;;;;;;5111065;27;20022;-73
2023/04/22 10:03:21;;;;;;;7.30;6.35;;;19.90;99.90;;;;;;5116211;27;20084;-72
2023/04/22 10:05:47;;;;;;;7.72;5.82;;;19.90;99.90;;;;;;5117906;27;20034;-73
2023/04/22 10:08:14;;;;;;;6.93;6.22;;;19.70;99.90;;;;;;5115446;27;20027;-73
2023/04/22 10:10:40;;;;;;;7.78;6.97;;;19.90;99.90;;;;;;5113463;28;20032;-73
2023/04/22 10:13:07;;;;;;;7.15;6.43;;;20.00;99.90;;;;;;5112024;27;20027;-72
2023/04/22 10:15:34;;;;;;;7.25;6.30;;;19.80;99.90;;;;;;5115833;27;20027;-72
2023/04/22 10:18:03;;;;;;;6.25;5.63;;;19.80;99.90;;;;;;5112203;28;20016;-72
2023/04/22 10:20:31;;;;;;;6.20;5.70;;;20.00;99.90;;;;;;5113307;28;20384;-72
2023/04/22 10:22:57;;;;;;;6.93;6.22;;;20.40;99.90;;;;;;5110500;28;20176;-72
2023/04/22 10:25:24;;;;;;;7.63;6.05;;;20.60;99.90;;;;;;5113401;27;20102;-72
2023/04/22 10:28:04;;;;;;;7.55;5.82;;;20.60;99.90;;;;;;5116454;27;20165;-72
2023/04/22 10:30:32;;;;;;;8.40;5.72;;;20.60;99.90;;;;;;5115584;28;20038;-72
2023/04/22 10:33:20;;;;;;;7.82;6.13;;;20.60;99.90;;;;;;5113823;28;20491;-72
2023/04/22 10:36:06;;;;;;;8.88;5.80;;;20.50;99.90;;;;;;5112743;28;20042;-72
2023/04/22 10:38:37;;;;;;;5.05;4.60;;;20.30;99.90;;;;;;5114860;28;20020;-72
2023/04/22 10:41:03;;;;;;;4.97;4.05;;;20.00;99.90;;;;;;5109427;28;20424;-72
2023/04/22 10:43:45;;;;;;;8.70;5.38;;;19.90;99.90;;;;;;5116705;28;20122;-72
2023/04/22 10:46:36;;;;;;;7.18;5.20;;;19.70;99.90;;;;;;5115129;28;20107;-72
2023/04/22 10:49:22;;;;;;;5.32;4.20;;;19.50;99.90;;;;;;5115167;28;20030;-72
2023/04/22 10:51:57;;;;;;;5.13;4.68;;;19.50;99.90;;;;;;5115216;27;20016;-72
2023/04/22 10:54:26;;;;;;;6.07;4.95;;;19.40;99.90;;;;;;5109465;28;20043;-72
2023/04/22 10:57:08;;;;;;;6.95;4.63;;;19.30;99.90;;;;;;5113783;28;20032;-72
2023/04/22 10:59:41;;;;;;;5.90;5.32;;;19.30;99.90;;;;;;5119348;27;20027;-72
2023/04/22 11:02:08;;;;;;;6.15;4.88;;;19.30;99.90;;;;;;5120970;27;20027;-72
2023/04/22 11:04:34;;;;;;;8.00;5.07;;;19.40;99.90;;;;;;5117244;27;20033;-72
2023/04/22 11:07:21;;;;;;;5.53;4.05;;;19.50;99.90;;;;;;5114317;27;20030;-72
2023/04/22 11:09:52;;;;;;;6.93;5.00;;;19.50;99.90;;;;;;5117830;27;20093;-72
2023/04/22 11:12:40;;;;;;;6.00;5.35;;;19.40;99.90;;;;;;5118180;27;20491;-72
2023/04/22 11:15:08;;;;;;;6.43;5.13;;;19.40;99.90;;;;;;5114432;27;20039;-72
2023/04/22 11:17:35;;;;;;;8.52;5.18;;;19.30;99.90;;;;;;5119725;27;20547;-72
2023/04/22 11:20:01;;;;;;;5.60;4.95;;;19.30;99.90;;;;;;5119199;27;20032;-72
2023/04/22 11:22:33;;;;;;;7.63;5.13;;;19.20;99.90;;;;;;5116035;27;20495;-72
2023/04/22 11:25:00;;;;;;;6.40;5.28;;;19.10;99.90;;;;;;5116733;27;20027;-73
2023/04/22 11:27:26;;;;;;;6.32;5.50;;;19.20;99.90;;;;;;5115473;27;20022;-72
2023/04/22 11:30:11;;;;;;;5.68;4.75;;;19.10;99.90;;;;;;5116321;27;20506;-71
2023/04/22 11:32:40;;;;;;;5.35;4.70;;;19.10;99.90;;;;;;5116206;27;20023;-72
2023/04/22 11:35:08;;;;;;;6.22;4.93;;;19.00;99.90;;;;;;5114681;27;20080;-72
2023/04/22 11:37:41;;;;;;;6.28;4.97;;;19.00;99.90;;;;;;5118843;27;20110;-72
2023/04/22 11:40:09;;;;;;;8.20;5.53;;;19.00;99.90;;;;;;5114060;27;20042;-72
2023/04/22 11:42:36;;;;;;;6.97;4.88;;;19.00;99.90;;;;;;5120741;27;20473;-72
2023/04/22 11:45:02;;;;;;;10.20;6.43;;;19.10;99.90;;;;;;5117714;27;20507;-72
2023/04/22 11:47:32;;;;;;;8.18;6.15;;;19.10;99.90;;;;;;5118080;27;20031;-72
2023/04/22 11:50:00;;;;;;;6.78;4.18;;;19.10;99.90;;;;;;5113878;27;20035;-72
2023/04/22 11:53:02;;;;;;;6.50;4.85;;;19.20;99.90;;;;;;5119566;27;20474;-72
2023/04/22 11:55:32;;;;;;;6.20;5.55;;;19.10;99.90;;;;;;5115470;27;20055;-72
2023/04/22 11:58:01;;;;;;;6.65;4.60;;;19.10;99.90;;;;;;5117374;27;20020;-72
2023/04/22 12:00:32;;;;;;;7.13;5.78;;;19.00;99.90;;;;;;5114657;27;20035;-72
2023/04/22 12:03:13;;;;;;;5.65;5.15;;;19.00;99.90;;;;;;5115537;27;20058;-72
2023/04/22 12:05:41;;;;;;;6.95;5.30;;;19.00;99.90;;;;;;5119556;27;21452;-72
2023/04/22 12:08:12;;;;;;;6.00;5.40;;;19.00;99.90;;;;;;5117415;27;20023;-72
2023/04/22 12:10:53;;;;;;;6.07;5.47;;;18.90;99.90;;;;;;5114430;27;20131;-72
2023/04/22 12:13:29;;;;;;;5.30;4.78;;;18.90;99.90;;;;;;5114446;27;20457;-72
2023/04/22 12:16:00;;;;;;;5.50;3.95;;;18.80;99.90;;;;;;5120847;27;20015;-72
2023/04/22 12:18:29;;;;;;;5.32;4.25;;;18.80;99.90;;;;;;5121335;27;20092;-73
2023/04/22 12:20:59;;;;;;;6.88;4.60;;;18.80;99.90;;;;;;5115982;27;20091;-72
2023/04/22 12:23:28;;;;;;;5.72;4.57;;;18.80;99.90;;;;;;5119974;27;20019;-72
2023/04/22 12:25:53;;;;;;;4.85;4.10;;;18.70;99.90;;;;;;5118895;27;20048;-72
2023/04/22 12:28:20;;;;;;;5.30;4.15;;;18.60;99.90;;;;;;5117609;27;20126;-71
2023/04/22 12:30:46;;;;;;;5.65;4.10;;;18.60;99.90;;;;;;5114411;27;20168;-71
2023/04/22 12:33:11;;;;;;;6.15;3.88;;;18.50;99.90;;;;;;5116103;27;20551;-73